createdAt,value
2023-05-28T00:00:19.589Z,95306.00
2023-05-28T00:01:20.021Z,95306.00
2023-05-28T00:02:19.001Z,95304.00
2023-05-28T00:03:19.223Z,95302.00
2023-05-28T00:04:19.142Z,95302.00
2023-05-28T00:05:18.987Z,95300.00
2023-05-28T00:06:18.942Z,95298.00
2023-05-28T00:07:18.987Z,95300.00
2023-05-28T00:08:18.955Z,95298.00
2023-05-28T00:09:18.931Z,95300.00
2023-05-28T00:10:18.925Z,95298.00
2023-05-28T00:11:18.929Z,95300.00
2023-05-28T00:12:18.911Z,95298.00
2023-05-28T00:13:18.917Z,95300.00
2023-05-28T00:14:18.921Z,95300.00
2023-05-28T00:15:18.914Z,95300.00
2023-05-28T00:16:18.935Z,95302.00
2023-05-28T00:17:18.909Z,95300.00
2023-05-28T00:18:18.871Z,95302.00
2023-05-28T00:19:18.890Z,95302.00
2023-05-28T00:20:18.900Z,95302.00
2023-05-28T00:21:18.873Z,95304.00
2023-05-28T00:22:18.820Z,95304.00
2023-05-28T00:23:18.845Z,95302.00
2023-05-28T00:24:18.912Z,95302.00
2023-05-28T00:25:18.979Z,95300.00
2023-05-28T00:26:19.032Z,95298.00
2023-05-28T00:27:19.079Z,95300.00
2023-05-28T00:28:19.148Z,95296.00
2023-05-28T00:29:19.247Z,95298.00
2023-05-28T00:30:19.311Z,95298.00
2023-05-28T00:31:19.367Z,95298.00
2023-05-28T00:32:19.421Z,95298.00
2023-05-28T00:33:19.472Z,95298.00
2023-05-28T00:34:19.507Z,95296.00
2023-05-28T00:35:19.603Z,95298.00
2023-05-28T00:36:20.596Z,95298.00
2023-05-28T00:37:19.672Z,95300.00
2023-05-28T00:38:19.768Z,95300.00
2023-05-28T00:39:19.816Z,95300.00
2023-05-28T00:40:19.907Z,95300.00
2023-05-28T00:41:19.926Z,95302.00
2023-05-28T00:42:19.994Z,95300.00
2023-05-28T00:43:20.069Z,95302.00
2023-05-28T00:44:20.101Z,95300.00
2023-05-28T00:45:20.191Z,95302.00
2023-05-28T00:46:20.370Z,95300.00
2023-05-28T00:47:20.310Z,95300.00
2023-05-28T00:48:20.399Z,95298.00
2023-05-28T00:49:20.450Z,95298.00
2023-05-28T00:50:20.489Z,95300.00
2023-05-28T00:51:20.573Z,95298.00
2023-05-28T00:52:20.622Z,95300.00
2023-05-28T00:53:20.700Z,95298.00
2023-05-28T00:54:21.580Z,95298.00
2023-05-28T00:55:20.810Z,95294.00
2023-05-28T00:56:21.118Z,95294.00
2023-05-28T00:57:20.963Z,95294.00
2023-05-28T00:58:21.013Z,95294.00
2023-05-28T00:59:21.076Z,95294.00
2023-05-28T01:00:21.123Z,95294.00
2023-05-28T01:01:21.230Z,95288.00
2023-05-28T01:02:21.397Z,95290.00
2023-05-28T01:03:21.374Z,95286.00
2023-05-28T01:04:22.329Z,95286.00
2023-05-28T01:05:21.286Z,95286.00
2023-05-28T01:06:21.294Z,95284.00
2023-05-28T01:07:21.297Z,95282.00
2023-05-28T01:08:21.291Z,95284.00
2023-05-28T01:09:21.277Z,95282.00
2023-05-28T01:10:21.261Z,95282.00
2023-05-28T01:11:21.296Z,95280.00
2023-05-28T01:12:21.250Z,95278.00
2023-05-28T01:13:21.251Z,95280.00
2023-05-28T01:14:21.241Z,95280.00
2023-05-28T01:15:21.279Z,95280.00
2023-05-28T01:16:21.414Z,95280.00
2023-05-28T01:17:21.474Z,95278.00
2023-05-28T01:18:21.460Z,95274.00
2023-05-28T01:19:22.123Z,95270.00
2023-05-28T01:20:21.630Z,95274.00
2023-05-28T01:21:21.664Z,95270.00
2023-05-28T01:22:21.765Z,95268.00
2023-05-28T01:23:21.774Z,95268.00
2023-05-28T01:24:21.879Z,95268.00
2023-05-28T01:25:21.923Z,95270.00
2023-05-28T01:26:21.969Z,95268.00
2023-05-28T01:27:22.051Z,95268.00
2023-05-28T01:28:22.086Z,95268.00
2023-05-28T01:29:22.188Z,95268.00
2023-05-28T01:30:22.241Z,95270.00
2023-05-28T01:31:22.328Z,95270.00
2023-05-28T01:32:22.377Z,95270.00
2023-05-28T01:33:22.413Z,95272.00
2023-05-28T01:34:22.471Z,95272.00
2023-05-28T01:35:22.548Z,95272.00
2023-05-28T01:36:22.592Z,95272.00
2023-05-28T01:37:22.673Z,95272.00
2023-05-28T01:38:24.419Z,95272.00
2023-05-28T01:39:22.770Z,95270.00
2023-05-28T01:40:22.842Z,95272.00
2023-05-28T01:41:22.942Z,95268.00
2023-05-28T01:42:22.957Z,95270.00
2023-05-28T01:43:23.042Z,95270.00
2023-05-28T01:44:23.084Z,95268.00
2023-05-28T01:45:23.165Z,95268.00
2023-05-28T01:46:23.247Z,95268.00
2023-05-28T01:47:23.359Z,95266.00
2023-05-28T01:48:23.331Z,95262.00
2023-05-28T01:49:23.410Z,95262.00
2023-05-28T01:50:23.460Z,95262.00
2023-05-28T01:51:23.512Z,95261.00
2023-05-28T01:52:23.578Z,95261.00
2023-05-28T01:53:23.628Z,95262.00
2023-05-28T01:54:24.626Z,95262.00
2023-05-28T01:55:23.751Z,95262.00
2023-05-28T01:56:23.824Z,95264.00
2023-05-28T01:57:23.899Z,95264.00
2023-05-28T01:58:23.935Z,95262.00
2023-05-28T01:59:24.022Z,95262.00
2023-05-28T02:00:24.050Z,95262.00
2023-05-28T02:01:24.152Z,95262.00
2023-05-28T02:02:24.179Z,95262.00
2023-05-28T02:03:24.275Z,95262.00
2023-05-28T02:04:24.279Z,95264.00
2023-05-28T02:05:24.378Z,95264.00
2023-05-28T02:06:24.437Z,95264.00
2023-05-28T02:07:24.514Z,95266.00
2023-05-28T02:08:24.564Z,95266.00
2023-05-28T02:09:24.661Z,95268.00
2023-05-28T02:10:24.704Z,95266.00
2023-05-28T02:11:25.229Z,95266.00
2023-05-28T02:12:24.812Z,95266.00
2023-05-28T02:13:24.867Z,95264.00
2023-05-28T02:14:24.932Z,95264.00
2023-05-28T02:15:25.022Z,95261.00
2023-05-28T02:16:25.202Z,95262.00
2023-05-28T02:17:25.202Z,95262.00
2023-05-28T02:18:25.194Z,95262.00
2023-05-28T02:19:25.242Z,95257.00
2023-05-28T02:20:25.396Z,95262.00
2023-05-28T02:21:25.404Z,95255.00
2023-05-28T02:22:25.465Z,95257.00
2023-05-28T02:23:25.512Z,95255.00
2023-05-28T02:24:25.583Z,95255.00
2023-05-28T02:25:25.629Z,95257.00
2023-05-28T02:26:25.700Z,95255.00
2023-05-28T02:27:25.795Z,95255.00
2023-05-28T02:28:25.833Z,95257.00
2023-05-28T02:29:25.869Z,95259.00
2023-05-28T02:30:25.905Z,95257.00
2023-05-28T02:31:26.053Z,95255.00
2023-05-28T02:32:26.035Z,95255.00
2023-05-28T02:33:26.106Z,95255.00
2023-05-28T02:34:26.176Z,95255.00
2023-05-28T02:35:26.206Z,95255.00
2023-05-28T02:36:26.296Z,95255.00
2023-05-28T02:37:26.339Z,95255.00
2023-05-28T02:38:26.359Z,95259.00
2023-05-28T02:39:26.454Z,95255.00
2023-05-28T02:40:26.589Z,95259.00
2023-05-28T02:41:26.545Z,95253.00
2023-05-28T02:42:26.595Z,95253.00
2023-05-28T02:43:26.669Z,95257.00
2023-05-28T02:44:26.717Z,95255.00
2023-05-28T02:45:26.779Z,95255.00
2023-05-28T02:46:26.955Z,95253.00
2023-05-28T02:47:26.929Z,95253.00
2023-05-28T02:48:26.972Z,95255.00
2023-05-28T02:49:26.985Z,95255.00
2023-05-28T02:50:27.058Z,95255.00
2023-05-28T02:51:27.120Z,95255.00
2023-05-28T02:52:27.158Z,95255.00
2023-05-28T02:53:27.240Z,95257.00
2023-05-28T02:54:27.263Z,95255.00
2023-05-28T02:55:28.197Z,95257.00
2023-05-28T02:56:28.160Z,95257.00
2023-05-28T02:57:27.442Z,95259.00
2023-05-28T02:58:27.491Z,95253.00
2023-05-28T02:59:27.529Z,95257.00
2023-05-28T03:00:27.618Z,95257.00
2023-05-28T03:01:27.702Z,95257.00
2023-05-28T03:02:27.793Z,95261.00
2023-05-28T03:03:27.947Z,95261.00
2023-05-28T03:04:27.866Z,95259.00
2023-05-28T03:05:27.876Z,95261.00
2023-05-28T03:06:27.956Z,95262.00
2023-05-28T03:07:27.985Z,95268.00
2023-05-28T03:08:28.077Z,95266.00
2023-05-28T03:09:28.126Z,95268.00
2023-05-28T03:10:28.158Z,95270.00
2023-05-28T03:11:28.681Z,95272.00
2023-05-28T03:12:28.266Z,95272.00
2023-05-28T03:13:28.354Z,95272.00
2023-05-28T03:14:28.375Z,95274.00
2023-05-28T03:15:28.429Z,95274.00
2023-05-28T03:16:28.504Z,95274.00
2023-05-28T03:17:28.530Z,95272.00
2023-05-28T03:18:28.549Z,95276.00
2023-05-28T03:19:28.576Z,95274.00
2023-05-28T03:20:28.650Z,95276.00
2023-05-28T03:21:28.701Z,95276.00
2023-05-28T03:22:28.669Z,95276.00
2023-05-28T03:23:28.777Z,95278.00
2023-05-28T03:24:28.877Z,95278.00
2023-05-28T03:25:28.806Z,95278.00
2023-05-28T03:26:28.893Z,95276.00
2023-05-28T03:27:28.930Z,95272.00
2023-05-28T03:28:28.967Z,95274.00
2023-05-28T03:29:29.679Z,95272.00
2023-05-28T03:30:29.017Z,95274.00
2023-05-28T03:31:29.197Z,95274.00
2023-05-28T03:32:29.120Z,95274.00
2023-05-28T03:33:29.149Z,95274.00
2023-05-28T03:34:29.190Z,95274.00
2023-05-28T03:35:29.321Z,95276.00
2023-05-28T03:36:29.276Z,95276.00
2023-05-28T03:37:29.320Z,95274.00
2023-05-28T03:38:29.370Z,95276.00
2023-05-28T03:39:29.343Z,95274.00
2023-05-28T03:40:29.384Z,95276.00
2023-05-28T03:41:29.439Z,95278.00
2023-05-28T03:42:29.482Z,95278.00
2023-05-28T03:43:29.516Z,95278.00
2023-05-28T03:44:29.564Z,95280.00
2023-05-28T03:45:29.610Z,95278.00
2023-05-28T03:46:29.692Z,95278.00
2023-05-28T03:47:29.726Z,95278.00
2023-05-28T03:48:29.760Z,95278.00
2023-05-28T03:49:29.801Z,95276.00
2023-05-28T03:50:29.853Z,95278.00
2023-05-28T03:51:29.906Z,95276.00
2023-05-28T03:52:29.957Z,95276.00
2023-05-28T03:53:30.004Z,95278.00
2023-05-28T03:54:30.040Z,95276.00
2023-05-28T03:55:30.062Z,95278.00
2023-05-28T03:56:30.148Z,95280.00
2023-05-28T03:57:30.167Z,95278.00
2023-05-28T03:58:30.207Z,95282.00
2023-05-28T03:59:30.238Z,95280.00
2023-05-28T04:00:30.241Z,95282.00
2023-05-28T04:01:30.303Z,95284.00
2023-05-28T04:02:30.384Z,95282.00
2023-05-28T04:03:30.478Z,95280.00
2023-05-28T04:04:30.536Z,95282.00
2023-05-28T04:05:30.436Z,95282.00
2023-05-28T04:06:30.490Z,95284.00
2023-05-28T04:07:30.495Z,95282.00
2023-05-28T04:08:30.473Z,95288.00
2023-05-28T04:09:30.582Z,95286.00
2023-05-28T04:10:30.560Z,95286.00
2023-05-28T04:11:30.566Z,95286.00
2023-05-28T04:12:30.600Z,95288.00
2023-05-28T04:13:30.598Z,95288.00
2023-05-28T04:14:30.611Z,95286.00
2023-05-28T04:15:30.652Z,95286.00
2023-05-28T04:16:30.777Z,95286.00
2023-05-28T04:17:30.730Z,95288.00
2023-05-28T04:18:30.725Z,95288.00
2023-05-28T04:19:30.779Z,95286.00
2023-05-28T04:20:30.864Z,95286.00
2023-05-28T04:21:30.832Z,95286.00
2023-05-28T04:22:30.839Z,95286.00
2023-05-28T04:23:30.837Z,95286.00
2023-05-28T04:24:30.882Z,95286.00
2023-05-28T04:25:30.880Z,95286.00
2023-05-28T04:26:30.911Z,95284.00
2023-05-28T04:27:30.950Z,95284.00
2023-05-28T04:28:30.942Z,95284.00
2023-05-28T04:29:30.977Z,95286.00
2023-05-28T04:30:31.011Z,95284.00
2023-05-28T04:31:31.084Z,95286.00
2023-05-28T04:32:31.053Z,95284.00
2023-05-28T04:33:31.036Z,95284.00
2023-05-28T04:34:31.087Z,95286.00
2023-05-28T04:35:31.093Z,95288.00
2023-05-28T04:36:31.246Z,95290.00
2023-05-28T04:37:31.110Z,95288.00
2023-05-28T04:38:31.176Z,95290.00
2023-05-28T04:39:31.174Z,95290.00
2023-05-28T04:40:31.215Z,95290.00
2023-05-28T04:41:31.717Z,95290.00
2023-05-28T04:42:31.272Z,95290.00
2023-05-28T04:43:31.292Z,95286.00
2023-05-28T04:44:31.322Z,95288.00
2023-05-28T04:45:31.327Z,95284.00
2023-05-28T04:46:31.739Z,95286.00
2023-05-28T04:47:31.401Z,95286.00
2023-05-28T04:48:31.355Z,95288.00
2023-05-28T04:49:31.356Z,95288.00
2023-05-28T04:50:31.465Z,95292.00
2023-05-28T04:51:31.770Z,95290.00
2023-05-28T04:52:31.463Z,95292.00
2023-05-28T04:53:31.473Z,95292.00
2023-05-28T04:54:31.491Z,95292.00
2023-05-28T04:55:31.512Z,95290.00
2023-05-28T04:56:31.736Z,95286.00
2023-05-28T04:57:31.513Z,95288.00
2023-05-28T04:58:32.234Z,95288.00
2023-05-28T04:59:31.584Z,95286.00
2023-05-28T05:00:31.588Z,95286.00
2023-05-28T05:01:31.650Z,95288.00
2023-05-28T05:02:31.645Z,95286.00
2023-05-28T05:03:31.668Z,95284.00
2023-05-28T05:04:31.672Z,95288.00
2023-05-28T05:05:31.631Z,95288.00
2023-05-28T05:06:31.665Z,95288.00
2023-05-28T05:07:31.602Z,95288.00
2023-05-28T05:08:31.592Z,95290.00
2023-05-28T05:09:31.679Z,95290.00
2023-05-28T05:10:31.598Z,95292.00
2023-05-28T05:11:31.584Z,95294.00
2023-05-28T05:12:31.603Z,95294.00
2023-05-28T05:13:31.568Z,95292.00
2023-05-28T05:14:31.574Z,95292.00
2023-05-28T05:15:31.584Z,95290.00
2023-05-28T05:16:31.632Z,95290.00
2023-05-28T05:17:31.615Z,95290.00
2023-05-28T05:18:31.554Z,95292.00
2023-05-28T05:19:31.552Z,95294.00
2023-05-28T05:20:31.596Z,95290.00
2023-05-28T05:21:31.770Z,95292.00
2023-05-28T05:22:31.533Z,95294.00
2023-05-28T05:23:31.550Z,95292.00
2023-05-28T05:24:31.547Z,95294.00
2023-05-28T05:25:31.528Z,95288.00
2023-05-28T05:26:31.517Z,95288.00
2023-05-28T05:27:31.551Z,95290.00
2023-05-28T05:28:31.501Z,95288.00
2023-05-28T05:29:31.513Z,95286.00
2023-05-28T05:30:31.514Z,95288.00
2023-05-28T05:31:31.589Z,95290.00
2023-05-28T05:32:31.532Z,95288.00
2023-05-28T05:33:31.516Z,95288.00
2023-05-28T05:34:31.509Z,95286.00
2023-05-28T05:35:31.516Z,95286.00
2023-05-28T05:36:31.497Z,95286.00
2023-05-28T05:37:31.516Z,95290.00
2023-05-28T05:38:31.475Z,95290.00
2023-05-28T05:39:31.487Z,95288.00
2023-05-28T05:40:31.506Z,95290.00
2023-05-28T05:41:31.497Z,95290.00
2023-05-28T05:42:31.465Z,95292.00
2023-05-28T05:43:31.487Z,95294.00
2023-05-28T05:44:31.471Z,95294.00
2023-05-28T05:45:31.510Z,95292.00
2023-05-28T05:46:31.581Z,95292.00
2023-05-28T05:47:31.472Z,95292.00
2023-05-28T05:48:31.494Z,95288.00
2023-05-28T05:49:31.478Z,95290.00
2023-05-28T05:50:31.461Z,95286.00
2023-05-28T05:51:31.770Z,95286.00
2023-05-28T05:52:31.458Z,95286.00
2023-05-28T05:53:31.441Z,95286.00
2023-05-28T05:54:31.448Z,95288.00
2023-05-28T05:55:31.468Z,95286.00
2023-05-28T05:56:31.764Z,95290.00
2023-05-28T05:57:31.473Z,95292.00
2023-05-28T05:58:31.447Z,95290.00
2023-05-28T05:59:31.453Z,95296.00
2023-05-28T06:00:31.460Z,95294.00
2023-05-28T06:01:31.456Z,95294.00
2023-05-28T06:02:31.600Z,95292.00
2023-05-28T06:03:31.547Z,95288.00
2023-05-28T06:04:31.477Z,95290.00
2023-05-28T06:05:31.456Z,95288.00
2023-05-28T06:06:31.464Z,95290.00
2023-05-28T06:07:31.425Z,95290.00
2023-05-28T06:08:31.432Z,95286.00
2023-05-28T06:09:31.446Z,95286.00
2023-05-28T06:10:31.416Z,95284.00
2023-05-28T06:11:31.452Z,95284.00
2023-05-28T06:12:31.511Z,95286.00
2023-05-28T06:13:31.513Z,95284.00
2023-05-28T06:14:31.526Z,95282.00
2023-05-28T06:15:31.523Z,95282.00
2023-05-28T06:16:31.573Z,95284.00
2023-05-28T06:17:31.657Z,95282.00
2023-05-28T06:18:31.510Z,95282.00
2023-05-28T06:19:31.532Z,95280.00
2023-05-28T06:20:31.594Z,95282.00
2023-05-28T06:21:31.568Z,95280.00
2023-05-28T06:22:31.594Z,95280.00
2023-05-28T06:23:31.565Z,95282.00
2023-05-28T06:24:31.585Z,95280.00
2023-05-28T06:25:31.573Z,95282.00
2023-05-28T06:26:31.588Z,95284.00
2023-05-28T06:27:31.637Z,95286.00
2023-05-28T06:28:31.602Z,95284.00
2023-05-28T06:29:31.612Z,95286.00
2023-05-28T06:30:31.594Z,95286.00
2023-05-28T06:31:31.759Z,95288.00
2023-05-28T06:32:31.610Z,95284.00
2023-05-28T06:33:31.584Z,95284.00
2023-05-28T06:34:31.584Z,95284.00
2023-05-28T06:35:31.628Z,95284.00
2023-05-28T06:36:31.635Z,95282.00
2023-05-28T06:37:31.635Z,95282.00
2023-05-28T06:38:31.659Z,95282.00
2023-05-28T06:39:31.650Z,95282.00
2023-05-28T06:40:31.658Z,95282.00
2023-05-28T06:41:31.642Z,95280.00
2023-05-28T06:42:31.677Z,95282.00
2023-05-28T06:43:31.637Z,95282.00
2023-05-28T06:44:31.644Z,95282.00
2023-05-28T06:45:31.670Z,95280.00
2023-05-28T06:46:31.707Z,95280.00
2023-05-28T06:47:31.723Z,95280.00
2023-05-28T06:48:31.710Z,95280.00
2023-05-28T06:49:31.725Z,95280.00
2023-05-28T06:50:31.742Z,95280.00
2023-05-28T06:51:31.815Z,95280.00
2023-05-28T06:52:31.711Z,95278.00
2023-05-28T06:53:31.749Z,95278.00
2023-05-28T06:54:31.763Z,95278.00
2023-05-28T06:55:31.757Z,95278.00
2023-05-28T06:56:31.768Z,95278.00
2023-05-28T06:57:31.800Z,95278.00
2023-05-28T06:58:31.788Z,95280.00
2023-05-28T06:59:31.793Z,95280.00
2023-05-28T07:00:31.807Z,95280.00
2023-05-28T07:01:31.812Z,95280.00
2023-05-28T07:02:31.848Z,95282.00
2023-05-28T07:03:31.815Z,95282.00
2023-05-28T07:04:31.802Z,95282.00
2023-05-28T07:05:31.886Z,95282.00
2023-05-28T07:06:31.809Z,95282.00
2023-05-28T07:07:31.778Z,95280.00
2023-05-28T07:08:31.784Z,95278.00
2023-05-28T07:09:31.790Z,95278.00
2023-05-28T07:10:31.792Z,95278.00
2023-05-28T07:11:31.804Z,95276.00
2023-05-28T07:12:31.775Z,95278.00
2023-05-28T07:13:31.764Z,95280.00
2023-05-28T07:14:31.744Z,95278.00
2023-05-28T07:15:31.767Z,95278.00
2023-05-28T07:16:31.930Z,95278.00
2023-05-28T07:17:31.832Z,95280.00
2023-05-28T07:18:31.824Z,95280.00
2023-05-28T07:19:31.812Z,95282.00
2023-05-28T07:20:31.823Z,95282.00
2023-05-28T07:21:31.853Z,95286.00
2023-05-28T07:22:31.814Z,95284.00
2023-05-28T07:23:31.835Z,95286.00
2023-05-28T07:24:31.838Z,95286.00
2023-05-28T07:25:31.831Z,95284.00
2023-05-28T07:26:32.324Z,95284.00
2023-05-28T07:27:31.834Z,95282.00
2023-05-28T07:28:31.894Z,95284.00
2023-05-28T07:29:31.860Z,95280.00
2023-05-28T07:30:31.866Z,95282.00
2023-05-28T07:31:31.877Z,95282.00
2023-05-28T07:32:31.979Z,95282.00
2023-05-28T07:33:31.904Z,95280.00
2023-05-28T07:34:31.898Z,95282.00
2023-05-28T07:35:31.938Z,95280.00
2023-05-28T07:36:31.900Z,95282.00
2023-05-28T07:37:31.938Z,95282.00
2023-05-28T07:38:31.939Z,95280.00
2023-05-28T07:39:31.923Z,95278.00
2023-05-28T07:40:31.923Z,95278.00
2023-05-28T07:41:31.909Z,95274.00
2023-05-28T07:42:31.930Z,95274.00
2023-05-28T07:43:31.937Z,95276.00
2023-05-28T07:44:31.917Z,95276.00
2023-05-28T07:45:31.933Z,95274.00
2023-05-28T07:46:31.962Z,95276.00
2023-05-28T07:47:32.000Z,95270.00
2023-05-28T07:48:31.932Z,95272.00
2023-05-28T07:49:31.961Z,95274.00
2023-05-28T07:50:31.943Z,95272.00
2023-05-28T07:51:31.937Z,95270.00
2023-05-28T07:52:31.957Z,95274.00
2023-05-28T07:53:31.988Z,95272.00
2023-05-28T07:54:31.997Z,95272.00
2023-05-28T07:55:32.025Z,95272.00
2023-05-28T07:56:31.992Z,95274.00
2023-05-28T07:57:31.988Z,95270.00
2023-05-28T07:58:31.987Z,95272.00
2023-05-28T07:59:31.999Z,95274.00
2023-05-28T08:00:31.980Z,95274.00
2023-05-28T08:01:32.029Z,95272.00
2023-05-28T08:02:32.143Z,95272.00
2023-05-28T08:03:32.190Z,95270.00
2023-05-28T08:04:32.068Z,95270.00
2023-05-28T08:05:32.069Z,95268.00
2023-05-28T08:06:32.044Z,95264.00
2023-05-28T08:07:32.081Z,95262.00
2023-05-28T08:08:32.281Z,95262.00
2023-05-28T08:09:32.076Z,95259.00
2023-05-28T08:10:32.089Z,95259.00
2023-05-28T08:11:32.076Z,95257.00
2023-05-28T08:12:32.090Z,95255.00
2023-05-28T08:13:32.108Z,95255.00
2023-05-28T08:14:32.100Z,95251.00
2023-05-28T08:15:32.083Z,95253.00
2023-05-28T08:16:32.152Z,95249.00
2023-05-28T08:17:32.179Z,95251.00
2023-05-28T08:18:32.129Z,95251.00
2023-05-28T08:19:32.161Z,95247.00
2023-05-28T08:20:32.161Z,95249.00
2023-05-28T08:21:32.197Z,95243.00
2023-05-28T08:22:32.180Z,95245.00
2023-05-28T08:23:32.203Z,95243.00
2023-05-28T08:24:32.221Z,95247.00
2023-05-28T08:25:32.216Z,95243.00
2023-05-28T08:26:32.348Z,95245.00
2023-05-28T08:27:32.224Z,95245.00
2023-05-28T08:28:32.238Z,95243.00
2023-05-28T08:29:32.254Z,95241.00
2023-05-28T08:30:32.273Z,95245.00
2023-05-28T08:31:32.408Z,95239.00
2023-05-28T08:32:32.339Z,95239.00
2023-05-28T08:33:32.269Z,95239.00
2023-05-28T08:34:32.284Z,95239.00
2023-05-28T08:35:32.297Z,95241.00
2023-05-28T08:36:32.253Z,95241.00
2023-05-28T08:37:32.263Z,95241.00
2023-05-28T08:38:32.289Z,95239.00
2023-05-28T08:39:32.228Z,95239.00
2023-05-28T08:40:32.238Z,95237.00
2023-05-28T08:41:32.272Z,95237.00
2023-05-28T08:42:32.238Z,95235.00
2023-05-28T08:43:32.234Z,95235.00
2023-05-28T08:44:32.263Z,95233.00
2023-05-28T08:45:32.209Z,95235.00
2023-05-28T08:46:32.264Z,95233.00
2023-05-28T08:47:32.284Z,95233.00
2023-05-28T08:48:32.263Z,95229.00
2023-05-28T08:49:32.224Z,95229.00
2023-05-28T08:50:32.234Z,95233.00
2023-05-28T08:51:32.364Z,95227.00
2023-05-28T08:52:32.234Z,95233.00
2023-05-28T08:53:32.247Z,95231.00
2023-05-28T08:54:32.283Z,95225.00
2023-05-28T08:55:32.304Z,95227.00
2023-05-28T08:56:32.381Z,95225.00
2023-05-28T08:57:32.437Z,95225.00
2023-05-28T08:58:32.266Z,95229.00
2023-05-28T08:59:32.286Z,95229.00
2023-05-28T09:00:32.280Z,95227.00
2023-05-28T09:01:32.423Z,95227.00
2023-05-28T09:02:32.295Z,95225.00
2023-05-28T09:03:32.412Z,95225.00
2023-05-28T09:04:32.287Z,95221.00
2023-05-28T09:05:32.260Z,95221.00
2023-05-28T09:06:32.331Z,95225.00
2023-05-28T09:07:32.306Z,95223.00
2023-05-28T09:08:32.314Z,95219.00
2023-05-28T09:09:32.314Z,95217.00
2023-05-28T09:10:32.321Z,95217.00
2023-05-28T09:11:32.338Z,95215.00
2023-05-28T09:12:32.347Z,95215.00
2023-05-28T09:13:32.357Z,95210.00
2023-05-28T09:14:32.361Z,95212.00
2023-05-28T09:15:32.363Z,95214.00
2023-05-28T09:16:32.394Z,95210.00
2023-05-28T09:17:32.405Z,95210.00
2023-05-28T09:18:32.380Z,95210.00
2023-05-28T09:19:32.352Z,95210.00
2023-05-28T09:20:32.489Z,95208.00
2023-05-28T09:21:32.421Z,95206.00
2023-05-28T09:22:32.428Z,95206.00
2023-05-28T09:23:32.444Z,95204.00
2023-05-28T09:24:32.459Z,95204.00
2023-05-28T09:25:32.461Z,95202.00
2023-05-28T09:26:32.472Z,95200.00
2023-05-28T09:27:32.482Z,95200.00
2023-05-28T09:28:32.467Z,95200.00
2023-05-28T09:29:32.496Z,95198.00
2023-05-28T09:30:32.552Z,95198.00
2023-05-28T09:31:32.539Z,95200.00
2023-05-28T09:32:32.518Z,95196.00
2023-05-28T09:33:32.546Z,95198.00
2023-05-28T09:34:32.556Z,95196.00
2023-05-28T09:35:32.583Z,95194.00
2023-05-28T09:36:32.576Z,95196.00
2023-05-28T09:37:32.574Z,95196.00
2023-05-28T09:38:32.581Z,95194.00
2023-05-28T09:39:32.570Z,95192.00
2023-05-28T09:40:32.564Z,95192.00
2023-05-28T09:41:32.555Z,95192.00
2023-05-28T09:42:32.590Z,95188.00
2023-05-28T09:43:32.555Z,95186.00
2023-05-28T09:44:32.544Z,95186.00
2023-05-28T09:45:32.570Z,95186.00
2023-05-28T09:46:32.949Z,95186.00
2023-05-28T09:47:32.614Z,95184.00
2023-05-28T09:48:32.543Z,95184.00
2023-05-28T09:49:32.570Z,95184.00
2023-05-28T09:50:32.582Z,95182.00
2023-05-28T09:51:32.583Z,95180.00
2023-05-28T09:52:32.590Z,95178.00
2023-05-28T09:53:32.584Z,95176.00
2023-05-28T09:54:32.600Z,95176.00
2023-05-28T09:55:32.609Z,95174.00
2023-05-28T09:56:34.479Z,95176.00
2023-05-28T09:57:32.612Z,95174.00
2023-05-28T09:58:32.588Z,95170.00
2023-05-28T09:59:32.591Z,95168.00
2023-05-28T10:00:32.587Z,95170.00
2023-05-28T10:01:32.612Z,95168.00
2023-05-28T10:02:32.670Z,95170.00
2023-05-28T10:03:32.684Z,95159.00
2023-05-28T10:04:32.576Z,95161.00
2023-05-28T10:05:32.581Z,95159.00
2023-05-28T10:06:32.590Z,95159.00
2023-05-28T10:07:32.543Z,95159.00
2023-05-28T10:08:32.518Z,95157.00
2023-05-28T10:09:32.535Z,95157.00
2023-05-28T10:10:32.492Z,95153.00
2023-05-28T10:11:32.503Z,95157.00
2023-05-28T10:12:32.522Z,95155.00
2023-05-28T10:13:32.499Z,95151.00
2023-05-28T10:14:32.484Z,95151.00
2023-05-28T10:15:32.477Z,95151.00
2023-05-28T10:16:32.950Z,95149.00
2023-05-28T10:17:32.506Z,95147.00
2023-05-28T10:18:32.455Z,95147.00
2023-05-28T10:19:32.462Z,95145.00
2023-05-28T10:20:32.484Z,95145.00
2023-05-28T10:21:32.433Z,95147.00
2023-05-28T10:22:32.414Z,95141.00
2023-05-28T10:23:32.426Z,95139.00
2023-05-28T10:24:32.479Z,95143.00
2023-05-28T10:25:32.446Z,95141.00
2023-05-28T10:26:32.423Z,95137.00
2023-05-28T10:27:32.433Z,95135.00
2023-05-28T10:28:32.396Z,95135.00
2023-05-28T10:29:32.428Z,95133.00
2023-05-28T10:30:32.381Z,95133.00
2023-05-28T10:31:32.451Z,95129.00
2023-05-28T10:32:32.395Z,95131.00
2023-05-28T10:33:32.384Z,95129.00
2023-05-28T10:34:32.372Z,95129.00
2023-05-28T10:35:32.346Z,95127.00
2023-05-28T10:36:32.324Z,95125.00
2023-05-28T10:37:32.329Z,95125.00
2023-05-28T10:38:32.324Z,95123.00
2023-05-28T10:39:32.301Z,95123.00
2023-05-28T10:40:32.321Z,95119.00
2023-05-28T10:41:32.314Z,95121.00
2023-05-28T10:42:32.283Z,95119.00
2023-05-28T10:43:32.285Z,95115.00
2023-05-28T10:44:32.268Z,95112.00
2023-05-28T10:45:32.312Z,95108.00
2023-05-28T10:46:32.341Z,95104.00
2023-05-28T10:47:32.270Z,95100.00
2023-05-28T10:48:32.267Z,95098.00
2023-05-28T10:49:32.241Z,95100.00
2023-05-28T10:50:32.255Z,95100.00
2023-05-28T10:51:32.484Z,95094.00
2023-05-28T10:52:32.240Z,95094.00
2023-05-28T10:53:32.226Z,95094.00
2023-05-28T10:54:32.191Z,95090.00
2023-05-28T10:55:32.178Z,95088.00
2023-05-28T10:56:32.457Z,95088.00
2023-05-28T10:57:32.175Z,95084.00
2023-05-28T10:58:32.169Z,95082.00
2023-05-28T10:59:32.587Z,95080.00
2023-05-28T11:00:32.168Z,95078.00
2023-05-28T11:01:32.172Z,95078.00
2023-05-28T11:02:32.161Z,95078.00
2023-05-28T11:03:32.270Z,95076.00
2023-05-28T11:04:32.100Z,95074.00
2023-05-28T11:05:32.281Z,95072.00
2023-05-28T11:06:32.124Z,95070.00
2023-05-28T11:07:32.088Z,95065.00
2023-05-28T11:08:32.080Z,95067.00
2023-05-28T11:09:32.093Z,95067.00
2023-05-28T11:10:32.618Z,95065.00
2023-05-28T11:11:32.068Z,95065.00
2023-05-28T11:12:32.166Z,95063.00
2023-05-28T11:13:32.187Z,95059.00
2023-05-28T11:14:32.225Z,95055.00
2023-05-28T11:15:32.272Z,95057.00
2023-05-28T11:16:32.555Z,95057.00
2023-05-28T11:17:32.359Z,95059.00
2023-05-28T11:18:32.415Z,95059.00
2023-05-28T11:19:32.482Z,95055.00
2023-05-28T11:20:32.558Z,95055.00
2023-05-28T11:21:32.638Z,95055.00
2023-05-28T11:22:32.630Z,95055.00
2023-05-28T11:23:32.709Z,95049.00
2023-05-28T11:24:32.762Z,95049.00
2023-05-28T11:25:32.781Z,95049.00
2023-05-28T11:26:32.867Z,95049.00
2023-05-28T11:27:32.895Z,95049.00
2023-05-28T11:28:32.962Z,95047.00
2023-05-28T11:29:33.003Z,95049.00
2023-05-28T11:30:33.087Z,95053.00
2023-05-28T11:31:33.212Z,95047.00
2023-05-28T11:32:33.316Z,95043.00
2023-05-28T11:33:33.282Z,95045.00
2023-05-28T11:34:33.290Z,95045.00
2023-05-28T11:35:33.353Z,95043.00
2023-05-28T11:36:33.407Z,95039.00
2023-05-28T11:37:33.484Z,95039.00
2023-05-28T11:38:33.533Z,95037.00
2023-05-28T11:39:33.596Z,95037.00
2023-05-28T11:40:33.638Z,95037.00
2023-05-28T11:41:33.786Z,95039.00
2023-05-28T11:42:33.767Z,95039.00
2023-05-28T11:43:33.834Z,95035.00
2023-05-28T11:44:33.875Z,95039.00